Time;durP1;ratioP1;P1;durP2;ratioP2;P2;SDS_P1;SDS_P2;PMS_P1;PMS_P2;Temp;Humidity;BMP_temperature;BMP_pressure;BME280_temperature;BME280_humidity;BME280_pressure;Samples;Min_cycle;Max_cycle;Signal;HPM_P1;HPM_P2
2022/09/04 00:01:56;;;;;;;13.60;7.60;;;;;;;12.98;73.69;99521.30;104871;1274;75148;-23
2022/09/04 00:04:33;;;;;;;16.10;7.90;;;;;;;12.86;73.86;99518.84;104653;1274;63365;-24
2022/09/04 00:07:21;;;;;;;17.70;8.20;;;;;;;12.56;75.47;99523.40;104588;1274;63337;-23
2022/09/04 00:09:48;;;;;;;12.40;6.70;;;;;;;12.35;76.58;99523.48;104460;1274;76697;-23
2022/09/04 00:12:15;;;;;;;15.40;7.60;;;;;;;13.00;74.91;99521.14;104639;1274;77006;-24
2022/09/04 00:14:48;;;;;;;12.60;7.60;;;;;;;13.37;72.55;99519.48;104627;1274;75038;-23
2022/09/04 00:17:19;;;;;;;12.80;8.20;;;;;;;13.21;72.72;99518.40;104579;1274;62983;-24
2022/09/04 00:19:55;;;;;;;13.40;7.70;;;;;;;13.08;73.14;99523.80;103479;1271;1622493;-24
2022/09/04 00:22:32;;;;;;;14.40;7.90;;;;;;;12.95;73.21;99526.45;104641;1275;76769;-23
2022/09/04 00:25:11;;;;;;;13.90;7.50;;;;;;;12.69;74.48;99532.13;104611;1276;77194;-24
2022/09/04 00:27:44;;;;;;;12.70;6.60;;;;;;;12.30;75.83;99536.77;104691;1274;75815;-23
2022/09/04 00:30:19;;;;;;;15.20;6.60;;;;;;;12.38;76.06;99538.41;104594;1274;61161;-23
2022/09/04 00:32:51;;;;;;;12.50;7.70;;;;;;;12.61;75.03;99536.77;104838;1274;61968;-23
2022/09/04 00:35:32;;;;;;;13.00;7.00;;;;;;;12.85;74.24;99535.50;104579;1274;76637;-24
2022/09/04 00:38:04;;;;;;;13.90;7.20;;;;;;;12.71;74.15;99536.22;104861;1272;75862;-23
2022/09/04 00:40:32;;;;;;;13.80;6.80;;;;;;;12.50;74.93;99537.78;104693;1274;75479;-23
2022/09/04 00:43:24;;;;;;;13.90;6.80;;;;;;;12.30;75.90;99537.66;104760;1274;61832;-23
2022/09/04 00:45:57;;;;;;;10.70;6.60;;;;;;;12.07;76.97;99538.98;104676;1274;63175;-24
2022/09/04 00:49:01;;;;;;;11.50;6.40;;;;;;;12.63;75.20;99539.02;104737;1274;76390;-24
2022/09/04 00:51:54;;;;;;;10.30;6.00;;;;;;;12.84;73.66;99532.91;104778;1274;76658;-23
2022/09/04 00:54:27;;;;;;;12.10;6.60;;;;;;;12.85;73.51;99533.36;104731;1274;74350;-24
2022/09/04 00:57:01;;;;;;;13.80;6.80;;;;;;;12.43;75.09;99536.25;104725;1274;63113;-23
2022/09/04 01:00:14;;;;;;;10.60;6.50;;;;;;;12.22;75.99;99537.48;104709;1274;62107;-23
2022/09/04 01:03:00;;;;;;;10.70;7.10;;;;;;;11.94;77.16;99534.78;104892;1274;76593;-24
2022/09/04 01:05:54;;;;;;;8.70;5.30;;;;;;;11.86;77.47;99539.59;105100;1274;75843;-23
2022/09/04 01:08:54;;;;;;;13.90;6.50;;;;;;;12.43;75.31;99535.20;104761;1275;75399;-24
2022/09/04 01:11:28;;;;;;;11.70;6.80;;;;;;;12.59;74.13;99539.85;104882;1274;63100;-24
2022/09/04 01:14:32;;;;;;;16.00;7.60;;;;;;;12.35;74.91;99536.23;104905;1274;63078;-24
2022/09/04 01:17:28;;;;;;;9.40;6.10;;;;;;;12.16;75.70;99541.20;104552;1277;76359;-23
2022/09/04 01:20:14;;;;;;;14.10;6.60;;;;;;;12.05;75.63;99545.58;104761;1274;77225;-23
2022/09/04 01:22:46;;;;;;;13.80;7.30;;;;;;;11.61;77.90;99546.85;104799;1271;73323;-24
2022/09/04 01:25:46;;;;;;;9.60;5.40;;;;;;;11.41;78.65;99549.30;104735;1271;64657;-24
2022/09/04 01:28:26;;;;;;;10.50;5.70;;;;;;;11.87;76.86;99553.38;104715;1271;62006;-23
2022/09/04 01:30:58;;;;;;;11.00;6.40;;;;;;;12.21;75.27;99554.03;104646;1272;75506;-24
2022/09/04 01:33:33;;;;;;;14.60;7.60;;;;;;;11.96;76.01;99554.48;104582;1275;76994;-24
2022/09/04 01:36:25;;;;;;;13.80;7.90;;;;;;;11.72;77.03;99552.16;104563;1277;75374;-24
2022/09/04 01:38:56;;;;;;;11.70;7.60;;;;;;;11.46;77.57;99555.65;104735;1274;62040;-23
2022/09/04 01:41:31;;;;;;;12.00;7.30;;;;;;;11.24;78.37;99559.45;104599;1274;61729;-24
2022/09/04 01:44:06;;;;;;;11.30;5.60;;;;;;;11.03;79.84;99559.47;104630;1274;76881;-24
2022/09/04 01:46:36;;;;;;;8.80;5.90;;;;;;;11.44;78.23;99558.29;104658;1274;76768;-23
2022/09/04 01:49:15;;;;;;;11.00;7.00;;;;;;;11.81;76.50;99560.09;104582;1274;75297;-23
2022/09/04 01:51:51;;;;;;;10.00;5.70;;;;;;;11.79;75.76;99560.31;105074;1274;63044;-24
2022/09/04 01:54:43;;;;;;;8.60;6.10;;;;;;;11.63;75.15;99555.11;105072;1274;62975;-24
2022/09/04 01:57:29;;;;;;;10.50;6.30;;;;;;;11.28;75.47;99551.84;104852;1274;75087;-24
2022/09/04 02:00:14;;;;;;;10.60;6.10;;;;;;;10.96;76.11;99551.64;104815;1274;77451;-23
2022/09/04 02:02:52;;;;;;;13.80;7.60;;;;;;;10.60;76.79;99549.22;104676;1274;75644;-24
2022/09/04 02:05:28;;;;;;;10.70;5.70;;;;;;;10.29;77.54;99549.70;104816;1274;63757;-24
2022/09/04 02:08:46;;;;;;;12.40;5.70;;;;;;;10.75;77.46;99544.86;104879;1274;63044;-23
2022/09/04 02:11:16;;;;;;;12.00;6.40;;;;;;;11.31;76.16;99543.77;104586;1278;76593;-23
2022/09/04 02:14:05;;;;;;;13.30;6.80;;;;;;;11.22;75.31;99546.35;104152;1280;77013;-23
2022/09/04 02:17:22;;;;;;;10.70;7.00;;;;;;;10.89;75.30;99547.59;104572;1274;75490;-23
2022/09/04 02:20:08;;;;;;;14.50;7.60;;;;;;;10.42;75.71;99552.07;104620;1274;62903;-23
2022/09/04 02:22:43;;;;;;;11.00;6.90;;;;;;;10.06;76.90;99552.35;104625;1274;63453;-23
2022/09/04 02:25:16;;;;;;;8.10;4.50;;;;;;;9.80;77.86;99553.81;104687;1274;75746;-23
2022/09/04 02:28:24;;;;;;;8.50;4.60;;;;;;;10.24;78.17;99551.80;104747;1274;76844;-23
2022/09/04 02:31:09;;;;;;;9.50;6.20;;;;;;;10.79;77.91;99549.04;104823;1274;75495;-23
2022/09/04 02:33:47;;;;;;;10.40;5.70;;;;;;;10.75;77.50;99547.99;104602;1274;61137;-23
2022/09/04 02:36:14;;;;;;;9.30;5.40;;;;;;;10.53;77.34;99551.63;104647;1274;63153;-23
2022/09/04 02:39:12;;;;;;;7.50;5.70;;;;;;;10.24;76.42;99545.90;104732;1273;74762;-23
2022/09/04 02:41:49;;;;;;;11.60;6.20;;;;;;;9.79;76.94;99547.86;104650;1274;74634;-23
2022/09/04 02:44:26;;;;;;;6.80;3.80;;;;;;;9.45;79.12;99544.66;104891;1274;75408;-24
2022/09/04 02:47:16;;;;;;;5.50;3.90;;;;;;;9.83;79.41;99549.85;104758;1273;63121;-23
2022/09/04 02:50:21;;;;;;;7.20;5.10;;;;;;;10.21;77.33;99549.89;105081;1272;62884;-23
2022/09/04 02:53:10;;;;;;;7.10;4.50;;;;;;;10.05;76.86;99549.14;105043;1274;76652;-24
2022/09/04 02:55:56;;;;;;;9.10;5.10;;;;;;;9.74;77.71;99546.29;105027;1274;75237;-23
2022/09/04 02:58:34;;;;;;;12.50;5.60;;;;;;;9.49;78.82;99545.73;104990;1274;73727;-24
2022/09/04 03:01:07;;;;;;;12.40;5.70;;;;;;;9.27;79.55;99546.19;104704;1272;61916;-24
2022/09/04 03:03:46;;;;;;;;;;;;;;;9.12;80.05;99553.67;104646;1274;61848;-24
2022/09/04 03:06:21;;;;;;;6.80;4.00;;;;;;;9.58;79.46;99557.65;104617;1274;76627;-24
2022/09/04 03:08:52;;;;;;;7.80;4.40;;;;;;;10.10;77.15;99555.78;104643;1274;76225;-24
2022/09/04 03:11:24;;;;;;;7.70;4.70;;;;;;;10.09;76.99;99559.27;104646;1272;75386;-24
2022/09/04 03:14:00;;;;;;;5.70;4.10;;;;;;;9.76;76.07;99561.06;104633;1274;62947;-24
2022/09/04 03:16:39;;;;;;;10.80;5.70;;;;;;;9.30;77.45;99558.84;104696;1274;63095;-23
2022/09/04 03:19:13;;;;;;;9.40;5.00;;;;;;;8.92;78.64;99562.90;104519;1274;76511;-24
2022/09/04 03:21:48;;;;;;;7.00;4.90;;;;;;;8.62;78.93;99562.61;104607;1274;77036;-24
2022/09/04 03:24:21;;;;;;;9.10;3.00;;;;;;;8.34;79.24;99565.94;104657;1274;75401;-23
2022/09/04 03:26:54;;;;;;;6.90;3.80;;;;;;;8.71;79.34;99568.77;104594;1271;63376;-23
2022/09/04 03:29:24;;;;;;;9.10;5.00;;;;;;;9.23;79.23;99568.13;104441;1274;63068;-23
2022/09/04 03:32:33;;;;;;;7.70;5.00;;;;;;;9.30;78.99;99564.84;104783;1274;75876;-23
2022/09/04 03:35:11;;;;;;;8.00;4.70;;;;;;;9.13;80.09;99569.18;104355;1274;77057;-23
2022/09/04 03:38:07;;;;;;;5.80;3.30;;;;;;;8.91;79.53;99563.66;104676;1271;75633;-23
2022/09/04 03:40:43;;;;;;;4.10;2.60;;;;;;;8.54;77.80;99567.23;104764;1271;61063;-24
2022/09/04 03:43:23;;;;;;;4.80;2.70;;;;;;;8.26;78.71;99566.11;104668;1271;62871;-24
2022/09/04 03:46:02;;;;;;;5.30;2.80;;;;;;;8.70;78.51;99568.47;104837;1272;76889;-23
2022/09/04 03:48:49;;;;;;;9.60;4.50;;;;;;;9.18;77.24;99567.79;104691;1274;76979;-23
2022/09/04 03:51:23;;;;;;;10.00;4.90;;;;;;;9.24;78.69;99575.35;104616;1274;75383;-24
2022/09/04 03:54:22;;;;;;;7.20;3.30;;;;;;;9.14;78.92;99574.63;104675;1274;63156;-23
2022/09/04 03:56:54;;;;;;;7.00;4.30;;;;;;;8.90;77.55;99577.77;104635;1274;61231;-23
2022/09/04 03:59:37;;;;;;;11.20;5.40;;;;;;;8.68;78.65;99583.17;104681;1274;75533;-24
2022/09/04 04:02:13;;;;;;;;;;;;;;;8.53;79.92;99584.16;104627;1274;75866;-24
2022/09/04 04:05:09;;;;;;;6.70;4.20;;;;;;;9.18;79.75;99580.36;104719;1274;75830;-23
2022/09/04 04:07:36;;;;;;;6.70;4.90;;;;;;;10.09;77.87;99584.46;104569;1274;63139;-24
2022/09/04 04:10:32;;;;;;;6.60;3.40;;;;;;;10.26;76.29;99588.21;104645;1274;63082;-23
2022/09/04 04:13:35;;;;;;;4.40;2.90;;;;;;;10.21;75.31;99592.98;104648;1274;75592;-23
2022/09/04 04:16:40;;;;;;;5.90;4.30;;;;;;;10.18;75.83;99597.88;104766;1274;76987;-24
2022/09/04 04:19:38;;;;;;;6.90;3.50;;;;;;;10.19;76.25;99599.48;104860;1274;74061;-24
2022/09/04 04:22:25;;;;;;;3.90;2.50;;;;;;;10.23;75.69;99595.73;104654;1273;64418;-24
2022/09/04 04:25:01;;;;;;;3.50;2.50;;;;;;;11.00;74.15;99596.98;104744;1274;61340;-24
2022/09/04 04:27:51;;;;;;;3.80;2.90;;;;;;;11.65;72.76;99597.70;104589;1274;76360;-24
2022/09/04 04:30:19;;;;;;;4.70;2.80;;;;;;;11.73;71.77;99598.09;104768;1274;76745;-24
2022/09/04 04:33:00;;;;;;;7.40;4.20;;;;;;;11.61;71.87;99596.27;104720;1274;75477;-24
2022/09/04 04:35:34;;;;;;;8.30;4.80;;;;;;;11.53;72.54;99604.54;104728;1274;62814;-24
2022/09/04 04:38:17;;;;;;;10.10;5.50;;;;;;;11.41;72.75;99605.05;104756;1274;62984;-23
2022/09/04 04:41:07;;;;;;;8.20;5.50;;;;;;;11.30;73.49;99605.07;104512;1274;76305;-23
2022/09/04 04:43:50;;;;;;;7.60;4.90;;;;;;;11.07;74.85;99612.47;105021;1274;77081;-23
2022/09/04 04:46:54;;;;;;;9.70;5.00;;;;;;;11.83;73.66;99609.36;104590;1274;75463;-23
2022/09/04 04:49:42;;;;;;;12.20;4.90;;;;;;;12.53;70.72;99614.17;105075;1274;61815;-24
2022/09/04 04:52:55;;;;;;;10.70;5.50;;;;;;;12.69;70.21;99618.65;105037;1274;63128;-24
2022/09/04 04:55:34;;;;;;;9.40;5.90;;;;;;;12.73;70.44;99617.83;105112;1274;75584;-23
2022/09/04 04:58:10;;;;;;;8.20;5.80;;;;;;;12.78;70.20;99619.88;104882;1272;77350;-24
2022/09/04 05:01:05;;;;;;;12.40;6.80;;;;;;;12.89;70.36;99613.38;104950;1271;75433;-23
2022/09/04 05:04:14;;;;;;;11.50;6.80;;;;;;;13.01;69.51;99618.20;104596;1272;61951;-24
2022/09/04 05:07:02;;;;;;;9.40;6.40;;;;;;;13.03;69.67;99615.72;104391;1274;62015;-23
2022/09/04 05:09:43;;;;;;;8.60;4.90;;;;;;;13.20;69.95;99617.30;104693;1274;76469;-23
2022/09/04 05:12:27;;;;;;;11.10;5.80;;;;;;;14.05;69.26;99615.23;104795;1274;77035;-24
2022/09/04 05:14:59;;;;;;;10.80;6.10;;;;;;;14.93;66.78;99617.10;104857;1274;75358;-23
2022/09/04 05:17:35;;;;;;;13.70;6.10;;;;;;;15.05;64.88;99622.86;104643;1274;61104;-23
2022/09/04 05:20:24;;;;;;;8.80;6.20;;;;;;;14.75;65.58;99624.88;104707;1274;61962;-24
2022/09/04 05:23:16;;;;;;;13.40;7.60;;;;;;;14.76;66.33;99627.00;104779;1271;76780;-24
2022/09/04 05:26:10;;;;;;;11.30;6.50;;;;;;;14.77;66.01;99631.47;105087;1271;77088;-24
2022/09/04 05:28:50;;;;;;;11.30;6.10;;;;;;;14.85;64.19;99636.70;104754;1271;74360;-23
2022/09/04 05:31:43;;;;;;;12.70;6.10;;;;;;;14.71;64.49;99638.80;104741;1274;61877;-24
2022/09/04 05:34:32;;;;;;;10.00;6.40;;;;;;;14.72;65.02;99638.50;104938;1272;62769;-23
2022/09/04 05:37:12;;;;;;;10.30;6.00;;;;;;;14.36;64.74;99642.42;104824;1272;76547;-23
2022/09/04 05:40:03;;;;;;;14.40;6.10;;;;;;;14.45;65.28;99643.52;104419;1271;75703;-23
2022/09/04 05:43:11;;;;;;;10.20;6.00;;;;;;;14.35;65.05;99645.80;104779;1271;74374;-24
2022/09/04 05:46:06;;;;;;;11.70;5.90;;;;;;;13.78;66.70;99644.95;105100;1274;63021;-24
2022/09/04 05:48:57;;;;;;;9.40;5.40;;;;;;;13.88;67.72;99648.09;104856;1271;61769;-23
2022/09/04 05:51:29;;;;;;;8.70;5.20;;;;;;;14.04;66.55;99646.73;104921;1271;76315;-23
2022/09/04 05:54:15;;;;;;;9.00;5.30;;;;;;;14.15;65.68;99644.41;104668;1274;75587;-24
2022/09/04 05:57:08;;;;;;;10.90;6.00;;;;;;;13.84;66.61;99645.76;104779;1274;74230;-24
2022/09/04 05:59:54;;;;;;;8.00;4.70;;;;;;;14.02;66.12;99644.41;105071;1272;64683;-23
2022/09/04 06:02:36;;;;;;;10.00;5.10;;;;;;;14.72;64.06;99648.49;105086;1274;63171;-24
2022/09/04 06:05:09;;;;;;;8.80;5.50;;;;;;;14.71;63.69;99645.77;104765;1274;74488;-24
2022/09/04 06:07:54;;;;;;;10.90;4.70;;;;;;;14.95;63.21;99649.23;105044;1274;75643;-23
2022/09/04 06:10:28;;;;;;;9.70;5.60;;;;;;;15.18;62.19;99646.33;105100;1274;75384;-23
2022/09/04 06:13:14;;;;;;;11.00;5.30;;;;;;;14.98;62.03;99650.05;105038;1271;63145;-24
2022/09/04 06:16:19;;;;;;;11.90;5.30;;;;;;;14.82;63.78;99648.66;104893;1274;61810;-23
2022/09/04 06:18:58;;;;;;;10.30;4.60;;;;;;;14.89;63.05;99655.23;104895;1274;76717;-24
2022/09/04 06:21:58;;;;;;;8.50;5.50;;;;;;;14.86;62.90;99652.16;104664;1274;76952;-24
2022/09/04 06:24:31;;;;;;;10.50;5.70;;;;;;;14.74;62.66;99650.80;104464;1274;75245;-24
2022/09/04 06:27:19;;;;;;;8.10;5.00;;;;;;;14.57;63.38;99653.11;104636;1274;63005;-24
2022/09/04 06:29:57;;;;;;;12.20;4.80;;;;;;;14.66;63.03;99648.67;104596;1274;61936;-24
2022/09/04 06:32:49;;;;;;;9.50;5.30;;;;;;;14.36;63.81;99649.52;104702;1274;77008;-24
2022/09/04 06:35:35;;;;;;;6.30;4.50;;;;;;;14.57;64.34;99650.71;104711;1274;75949;-23
2022/09/04 06:38:06;;;;;;;7.60;5.10;;;;;;;14.75;62.98;99656.46;104644;1274;74448;-23
2022/09/04 06:40:54;;;;;;;11.20;5.20;;;;;;;14.88;63.54;99654.95;104647;1274;61700;-23
2022/09/04 06:44:11;;;;;;;10.40;5.30;;;;;;;14.64;62.30;99653.88;104588;1274;63135;-23
2022/09/04 06:46:48;;;;;;;7.80;4.80;;;;;;;14.74;62.87;99655.13;104317;1274;76575;-24
2022/09/04 06:49:34;;;;;;;11.00;5.60;;;;;;;14.83;62.66;99656.40;104634;1271;75888;-24
2022/09/04 06:52:22;;;;;;;9.20;5.20;;;;;;;15.15;63.18;99657.99;104741;1274;75659;-24
2022/09/04 06:55:05;;;;;;;7.10;4.80;;;;;;;15.33;60.94;99654.98;104768;1274;62159;-23
2022/09/04 06:58:04;;;;;;;8.60;5.00;;;;;;;15.48;60.98;99652.33;104950;1274;62435;-23
2022/09/04 07:00:37;;;;;;;8.10;4.60;;;;;;;15.68;60.15;99651.55;105073;1274;75381;-24
2022/09/04 07:03:05;;;;;;;;;;;;;;;15.77;59.82;99658.95;104679;1272;77074;-24
2022/09/04 07:05:54;;;;;;;8.00;4.90;;;;;;;15.31;59.12;99662.46;104787;1274;75260;-24
2022/09/04 07:08:32;;;;;;;7.80;5.10;;;;;;;15.59;59.81;99666.88;104688;1274;61143;-24
2022/09/04 07:11:24;;;;;;;8.20;5.20;;;;;;;15.86;58.94;99666.73;104729;1272;63145;-24
2022/09/04 07:14:18;;;;;;;9.70;4.80;;;;;;;16.11;57.55;99667.73;104758;1271;75437;-24
2022/09/04 07:17:08;;;;;;;7.80;4.80;;;;;;;16.13;57.43;99669.29;104437;1271;77008;-23
2022/09/04 07:20:26;;;;;;;9.50;5.50;;;;;;;16.15;57.23;99662.44;104731;1274;75122;-23
2022/09/04 07:23:15;;;;;;;9.60;5.90;;;;;;;16.42;58.22;99669.11;104431;1274;62990;-24
2022/09/04 07:26:07;;;;;;;8.60;4.20;;;;;;;16.67;55.97;99668.71;104782;1274;62800;-24
2022/09/04 07:28:50;;;;;;;6.90;4.20;;;;;;;16.84;54.88;99670.42;104705;1274;75619;-24
2022/09/04 07:31:34;;;;;;;7.50;4.60;;;;;;;16.99;55.18;99666.67;104537;1274;77334;-24
2022/09/04 07:34:10;;;;;;;9.50;4.70;;;;;;;17.16;53.84;99666.98;104668;1274;75433;-24
2022/09/04 07:37:00;;;;;;;6.80;4.40;;;;;;;17.26;53.55;99666.11;104639;1274;63122;-24
2022/09/04 07:40:07;;;;;;;7.90;4.70;;;;;;;17.16;51.61;99672.35;104733;1274;62058;-24
2022/09/04 07:43:20;;;;;;;7.50;4.00;;;;;;;17.12;50.97;99674.73;104266;1278;75481;-23
2022/09/04 07:45:54;;;;;;;7.10;4.20;;;;;;;17.46;51.92;99677.16;104599;1274;76764;-23
2022/09/04 07:48:36;;;;;;;8.60;4.90;;;;;;;17.50;50.51;99678.11;104935;1274;74357;-24
2022/09/04 07:51:10;;;;;;;9.40;4.70;;;;;;;17.74;49.73;99681.70;104778;1274;63131;-23
2022/09/04 07:53:43;;;;;;;6.90;4.50;;;;;;;17.89;47.62;99679.16;104470;1274;61299;-23
2022/09/04 07:56:23;;;;;;;5.70;4.40;;;;;;;18.10;47.78;99674.40;104627;1274;76555;-24
2022/09/04 07:59:02;;;;;;;6.30;4.30;;;;;;;18.11;46.62;99673.67;105042;1274;77165;-24
2022/09/04 08:02:11;;;;;;;7.80;3.80;;;;;;;18.09;46.03;99673.95;104636;1274;74373;-23
2022/09/04 08:05:09;;;;;;;9.40;4.20;;;;;;;18.23;45.69;99671.81;104465;1274;63715;-24
2022/09/04 08:07:36;;;;;;;5.70;3.90;;;;;;;18.33;45.24;99666.92;104765;1274;62873;-23
2022/09/04 08:10:59;;;;;;;6.70;4.80;;;;;;;18.64;46.16;99671.48;104593;1274;76574;-23
2022/09/04 08:13:59;;;;;;;9.80;5.00;;;;;;;18.51;44.99;99672.23;104204;1280;77218;-24
2022/09/04 08:17:24;;;;;;;7.60;3.70;;;;;;;18.84;43.04;99673.77;104501;1280;75467;-24
2022/09/04 08:20:19;;;;;;;9.40;4.30;;;;;;;19.33;41.97;99675.61;103658;1286;63129;-24
2022/09/04 08:23:11;;;;;;;5.90;3.70;;;;;;;19.42;42.75;99678.99;103631;1286;63064;-23
2022/09/04 08:26:01;;;;;;;6.70;3.70;;;;;;;19.75;40.26;99678.53;104078;1280;75757;-23
2022/09/04 08:28:46;;;;;;;9.30;4.10;;;;;;;20.16;39.53;99673.62;104436;1280;75631;-23
2022/09/04 08:31:29;;;;;;;8.70;4.10;;;;;;;20.21;39.76;99673.79;104215;1280;75135;-23
2022/09/04 08:34:41;;;;;;;7.60;3.70;;;;;;;20.37;40.34;99676.55;104190;1279;62100;-24
2022/09/04 08:37:17;;;;;;;5.90;3.90;;;;;;;20.28;41.19;99673.42;104477;1280;62974;-24
2022/09/04 08:40:01;;;;;;;6.10;3.90;;;;;;;20.13;39.59;99670.98;104337;1280;75664;-24
2022/09/04 08:42:35;;;;;;;6.20;3.90;;;;;;;20.14;39.85;99670.79;104005;1280;77075;-24
2022/09/04 08:45:42;;;;;;;7.00;3.70;;;;;;;20.35;40.38;99669.69;104401;1273;75439;-24
2022/09/04 08:48:26;;;;;;;12.00;4.00;;;;;;;20.71;40.54;99671.67;104726;1274;61957;-24
2022/09/04 08:51:03;;;;;;;5.90;4.10;;;;;;;20.90;39.01;99667.76;104691;1274;62754;-24
2022/09/04 08:53:42;;;;;;;8.20;5.50;;;;;;;21.14;37.89;99664.29;104614;1274;74123;-23
2022/09/04 08:56:29;;;;;;;7.30;4.80;;;;;;;21.46;36.75;99657.86;104599;1274;76755;-24
2022/09/04 08:59:34;;;;;;;7.80;5.00;;;;;;;21.77;35.38;99661.59;104603;1274;75102;-23
2022/09/04 09:02:02;;;;;;;10.60;5.40;;;;;;;21.18;32.35;99667.85;105049;1274;63454;-24
2022/09/04 09:04:58;;;;;;;11.80;4.20;;;;;;;20.72;33.00;99672.23;104984;1273;61856;-24
2022/09/04 09:07:37;;;;;;;7.40;4.50;;;;;;;20.74;32.14;99673.78;105062;1274;75560;-23
2022/09/04 09:10:20;;;;;;;6.60;3.80;;;;;;;20.71;32.15;99673.98;104416;1274;77178;-24
2022/09/04 09:13:23;;;;;;;8.80;4.10;;;;;;;20.77;33.23;99673.11;104643;1274;74328;-24
2022/09/04 09:16:08;;;;;;;6.20;3.40;;;;;;;20.59;32.91;99670.21;104652;1274;63149;-24
2022/09/04 09:18:57;;;;;;;6.10;3.60;;;;;;;20.37;34.17;99676.35;104584;1274;62733;-24
2022/09/04 09:21:49;;;;;;;10.80;5.00;;;;;;;20.13;36.18;99676.59;104687;1274;75564;-23
2022/09/04 09:24:31;;;;;;;10.20;5.60;;;;;;;19.73;37.31;99675.75;104589;1274;77199;-24
2022/09/04 09:27:18;;;;;;;5.00;3.80;;;;;;;19.61;38.00;99678.40;104574;1274;74378;-24
2022/09/04 09:29:56;;;;;;;6.30;3.90;;;;;;;19.50;35.16;99672.96;104589;1274;62907;-24
2022/09/04 09:32:39;;;;;;;8.00;4.80;;;;;;;19.39;36.22;99672.45;104719;1274;63105;-24
2022/09/04 09:35:25;;;;;;;7.20;4.50;;;;;;;19.21;37.22;99676.14;105015;1274;76266;-24
2022/09/04 09:38:14;;;;;;;6.40;4.60;;;;;;;19.35;38.24;99674.00;104936;1273;76955;-24
2022/09/04 09:40:52;;;;;;;9.30;5.40;;;;;;;18.57;36.18;99671.45;104976;1274;75623;-24
2022/09/04 09:43:42;;;;;;;10.10;5.60;;;;;;;18.51;38.68;99673.95;104895;1274;61790;-23
2022/09/04 09:46:44;;;;;;;8.20;5.40;;;;;;;18.05;38.95;99680.36;105000;1274;61778;-24
2022/09/04 09:49:26;;;;;;;6.90;4.50;;;;;;;18.59;40.85;99680.95;104739;1274;75592;-24
2022/09/04 09:52:02;;;;;;;8.70;5.30;;;;;;;18.62;38.33;99680.75;104775;1273;76967;-24
2022/09/04 09:54:58;;;;;;;8.50;5.00;;;;;;;18.55;38.59;99680.98;104590;1274;75438;-24
2022/09/04 09:58:00;;;;;;;7.30;3.80;;;;;;;18.53;37.15;99678.95;105087;1274;63103;-24
2022/09/04 10:01:05;;;;;;;6.80;4.40;;;;;;;19.06;37.65;99679.80;104605;1274;63215;-24
2022/09/04 10:03:37;;;;;;;6.60;3.90;;;;;;;19.19;38.74;99676.73;104196;1274;76219;-24
2022/09/04 10:06:32;;;;;;;5.70;3.30;;;;;;;19.34;36.76;99673.03;104658;1273;77143;-24
2022/09/04 10:09:21;;;;;;;7.70;3.90;;;;;;;19.44;36.20;99669.98;104699;1272;75435;-24
2022/09/04 10:12:07;;;;;;;6.30;3.90;;;;;;;19.38;36.22;99667.98;104604;1274;63198;-23
2022/09/04 10:14:40;;;;;;;6.00;3.60;;;;;;;19.31;36.30;99666.98;104765;1272;61915;-24
2022/09/04 10:17:35;;;;;;;5.30;3.50;;;;;;;19.59;37.23;99670.27;104768;1272;76739;-24
2022/09/04 10:20:21;;;;;;;5.50;3.40;;;;;;;19.66;35.44;99667.98;104862;1272;76991;-24
2022/09/04 10:23:04;;;;;;;6.30;3.90;;;;;;;19.60;37.11;99672.98;104849;1274;75224;-24
2022/09/04 10:25:50;;;;;;;9.40;4.50;;;;;;;18.60;36.31;99670.98;104729;1271;61768;-24
2022/09/04 10:28:20;;;;;;;6.70;3.70;;;;;;;18.95;36.88;99671.69;104750;1274;62758;-22
2022/09/04 10:31:08;;;;;;;6.00;3.90;;;;;;;19.09;36.59;99670.27;104701;1274;75224;-23
2022/09/04 10:34:00;;;;;;;8.50;4.50;;;;;;;19.23;38.01;99670.02;104732;1274;75841;-23
2022/09/04 10:36:35;;;;;;;8.50;4.90;;;;;;;18.77;36.04;99669.67;104596;1274;74414;-23
2022/09/04 10:42:14;;;;;;;13.00;5.20;;;;;;;18.27;36.39;99673.62;104734;1274;61742;-23
2022/09/04 10:44:53;;;;;;;8.60;4.90;;;;;;;18.75;36.48;99672.70;104623;1274;75760;-23
2022/09/04 10:47:43;;;;;;;8.70;4.90;;;;;;;19.24;35.55;99672.81;104699;1274;77175;-23
2022/09/04 10:50:15;;;;;;;7.00;4.70;;;;;;;19.76;35.11;99668.48;104748;1274;74523;-23
2022/09/04 10:53:04;;;;;;;7.20;4.20;;;;;;;19.79;34.90;99670.59;104964;1273;63096;-23
2022/09/04 10:55:42;;;;;;;10.00;5.60;;;;;;;20.39;33.40;99666.02;105102;1274;63208;-23
2022/09/04 10:58:21;;;;;;;6.90;5.20;;;;;;;19.50;33.95;99669.67;104870;1274;77096;-23
2022/09/04 11:01:22;;;;;;;8.50;4.80;;;;;;;19.81;33.49;99671.40;104725;1274;77514;-23
2022/09/04 11:04:15;;;;;;;6.50;4.30;;;;;;;20.79;33.62;99666.20;104887;1273;74078;-23
2022/09/04 11:06:51;;;;;;;7.60;4.30;;;;;;;21.58;31.94;99663.58;104716;1274;61739;-23
2022/09/04 11:09:22;;;;;;;9.60;5.70;;;;;;;21.93;30.80;99656.30;104911;1274;63039;-23
2022/09/04 11:12:14;;;;;;;8.20;5.50;;;;;;;21.88;30.58;99654.91;104778;1274;76362;-23
2022/09/04 11:14:56;;;;;;;9.60;4.80;;;;;;;22.78;29.26;99654.64;105102;1274;76914;-24
2022/09/04 11:18:07;;;;;;;7.80;5.40;;;;;;;22.75;28.53;99656.16;104652;1274;75524;-23
2022/09/04 11:20:48;;;;;;;6.60;4.40;;;;;;;23.06;29.04;99660.02;104468;1274;62803;-23
2022/09/04 11:24:04;;;;;;;9.00;5.40;;;;;;;23.48;29.37;99649.83;104639;1274;62926;-23
2022/09/04 11:26:51;;;;;;;9.10;5.80;;;;;;;23.90;28.72;99652.39;104388;1274;76373;-23
2022/09/04 11:29:21;;;;;;;7.20;5.00;;;;;;;22.73;28.44;99650.95;104681;1274;75941;-23
2022/09/04 11:32:12;;;;;;;8.20;5.70;;;;;;;22.72;27.90;99645.39;104686;1274;75245;-23
2022/09/04 11:35:04;;;;;;;8.20;5.80;;;;;;;22.25;28.50;99642.02;104524;1274;61927;-23
2022/09/04 11:37:57;;;;;;;10.60;5.90;;;;;;;22.76;28.75;99638.70;104617;1274;62292;-24
2022/09/04 11:40:46;;;;;;;9.90;6.80;;;;;;;23.17;29.11;99642.30;104583;1274;76275;-23
2022/09/04 11:43:26;;;;;;;8.90;5.70;;;;;;;22.91;28.39;99637.41;105037;1274;77030;-23
2022/09/04 11:46:32;;;;;;;8.00;5.40;;;;;;;22.07;29.42;99637.25;104715;1274;74217;-23
2022/09/04 11:49:21;;;;;;;8.10;5.50;;;;;;;22.81;29.48;99639.10;104924;1274;62461;-22
2022/09/04 11:52:08;;;;;;;6.70;4.90;;;;;;;23.05;29.32;99643.41;104790;1274;61958;-23
2022/09/04 11:54:54;;;;;;;12.90;5.70;;;;;;;22.98;29.78;99641.45;104752;1274;76571;-23
2022/09/04 11:57:37;;;;;;;7.70;5.70;;;;;;;23.01;29.74;99643.71;104928;1274;75968;-22
2022/09/04 12:00:22;;;;;;;9.40;5.80;;;;;;;22.83;29.65;99643.41;104612;1274;75225;-22
2022/09/04 12:03:18;;;;;;;10.20;6.40;;;;;;;21.58;31.26;99640.39;104598;1274;62831;-23
2022/09/04 12:05:58;;;;;;;11.60;5.70;;;;;;;21.50;31.79;99639.61;104731;1274;62929;-23
2022/09/04 12:09:02;;;;;;;13.30;6.40;;;;;;;21.27;31.85;99638.79;104638;1274;75277;-23
2022/09/04 12:11:34;;;;;;;;;;;;;;;21.25;31.82;99634.27;104625;1271;75828;-23
2022/09/04 12:14:20;;;;;;;9.10;6.20;;;;;;;20.75;31.68;99637.84;104635;1274;74399;-23
2022/09/04 12:17:09;;;;;;;11.70;6.80;;;;;;;20.25;32.79;99632.27;104695;1273;62844;-23
2022/09/04 12:19:41;;;;;;;7.40;5.70;;;;;;;20.26;33.32;99632.32;103645;1274;1514629;-26
2022/09/04 12:22:19;;;;;;;9.80;6.60;;;;;;;20.27;33.90;99633.96;104791;1271;76578;-24
2022/09/04 12:25:17;;;;;;;28.80;7.50;;;;;;;20.13;34.19;99630.85;104730;1274;74256;-23
2022/09/04 12:27:53;;;;;;;8.70;6.00;;;;;;;19.52;35.01;99630.34;104673;1274;75727;-24
2022/09/04 12:30:31;;;;;;;10.90;6.90;;;;;;;19.69;35.15;99625.91;104684;1274;63044;-23
2022/09/04 12:33:22;;;;;;;13.20;7.50;;;;;;;19.42;35.55;99627.27;104774;1274;62163;-23
2022/09/04 12:36:27;;;;;;;8.10;6.20;;;;;;;18.82;36.30;99625.06;104623;1274;75433;-27
2022/09/04 12:39:02;;;;;;;9.40;6.20;;;;;;;19.12;35.08;99629.83;104962;1274;77077;-23
2022/09/04 12:41:48;;;;;;;11.10;6.60;;;;;;;19.45;34.43;99632.91;104683;1274;75328;-23
2022/09/04 12:44:18;;;;;;;9.60;5.80;;;;;;;19.53;35.19;99638.43;104798;1274;62799;-23
2022/09/04 12:47:01;;;;;;;8.20;5.60;;;;;;;19.57;35.44;99635.32;104734;1274;60988;-24
2022/09/04 12:49:52;;;;;;;12.30;6.00;;;;;;;19.56;34.77;99634.05;105044;1274;76767;-25
2022/09/04 12:52:22;;;;;;;8.30;6.10;;;;;;;19.46;34.71;99633.37;105100;1274;77473;-22